createdAt,value
2023-04-09T00:00:31.148Z,99177.05
2023-04-09T00:04:29.095Z,99173.19
2023-04-09T00:08:36.857Z,99173.56
2023-04-09T00:12:44.842Z,99172.77
2023-04-09T00:16:46.763Z,99170.71
2023-04-09T00:20:54.929Z,99165.98
2023-04-09T00:25:04.142Z,99163.61
2023-04-09T00:29:12.985Z,99170.52
2023-04-09T00:33:07.629Z,99172.66
2023-04-09T00:37:02.515Z,99176.64
2023-04-09T00:41:00.671Z,99178.68
2023-04-09T00:44:51.404Z,99179.36
2023-04-09T00:48:52.091Z,99181.08
2023-04-09T00:52:50.308Z,99179.36
2023-04-09T00:56:58.542Z,99183.30
2023-04-09T01:01:06.830Z,99180.93
2023-04-09T01:05:14.982Z,99175.37
2023-04-09T01:09:28.948Z,99181.47
2023-04-09T01:13:40.132Z,99186.42
2023-04-09T01:17:48.322Z,99184.67
2023-04-09T01:21:52.150Z,99186.48
2023-04-09T01:26:24.720Z,99184.23
2023-04-09T01:30:25.744Z,99190.89
2023-04-09T01:34:33.827Z,99188.66
2023-04-09T01:38:33.327Z,99194.17
2023-04-09T01:42:41.023Z,99192.27
2023-04-09T01:46:49.152Z,99186.31
2023-04-09T01:50:57.324Z,99183.41
2023-04-09T01:55:05.497Z,99190.01
2023-04-09T01:59:06.404Z,99195.04
2023-04-09T02:03:19.465Z,99186.35
2023-04-09T02:07:40.031Z,99185.48
2023-04-09T02:11:46.642Z,99181.83
2023-04-09T02:15:54.786Z,99187.44
2023-04-09T02:20:02.978Z,99187.33
2023-04-09T02:24:04.301Z,99184.86
2023-04-09T02:28:12.541Z,99187.16
2023-04-09T02:32:20.694Z,99189.23
2023-04-09T02:36:28.768Z,99193.23
2023-04-09T02:40:29.683Z,99190.45
2023-04-09T02:44:39.843Z,99190.75
2023-04-09T02:48:48.947Z,99185.21
2023-04-09T02:52:47.014Z,99181.36
2023-04-09T02:56:55.231Z,99181.42
2023-04-09T03:01:03.359Z,99183.25
2023-04-09T03:05:11.472Z,99182.11
2023-04-09T03:09:20.619Z,99182.30
2023-04-09T03:13:18.862Z,99180.58
2023-04-09T03:17:27.184Z,99184.72
2023-04-09T03:21:11.630Z,99185.55
2023-04-09T03:25:04.552Z,99189.55
2023-04-09T03:28:51.956Z,99189.54
2023-04-09T03:33:00.348Z,99188.66
2023-04-09T03:37:08.495Z,99194.83
2023-04-09T03:41:16.305Z,99198.41
2023-04-09T03:45:14.231Z,99203.30
2023-04-09T03:49:23.435Z,99206.88
2023-04-09T03:53:32.662Z,99214.86
2023-04-09T03:57:40.796Z,99209.81
2023-04-09T04:01:48.929Z,99207.11
2023-04-09T04:05:57.132Z,99205.15
2023-04-09T04:10:05.237Z,99209.56
2023-04-09T04:14:14.420Z,99211.38
2023-04-09T04:18:23.623Z,99212.37
2023-04-09T04:22:14.416Z,99210.60
2023-04-09T04:26:22.566Z,99217.95
2023-04-09T04:30:00.571Z,99219.40
2023-04-09T04:33:41.511Z,99218.37
2023-04-09T04:37:12.903Z,99216.32
2023-04-09T04:41:21.042Z,99215.34
2023-04-09T04:45:28.999Z,99217.56
2023-04-09T04:49:05.858Z,99220.83
2023-04-09T04:52:17.754Z,99222.80
2023-04-09T04:55:56.695Z,99229.18
2023-04-09T04:59:29.180Z,99224.84
2023-04-09T05:02:58.921Z,99231.61
2023-04-09T05:07:07.436Z,99233.55
2023-04-09T05:10:49.155Z,99238.10
2023-04-09T05:14:16.056Z,99238.61
2023-04-09T05:18:11.543Z,99245.62
2023-04-09T05:21:27.619Z,99246.31
2023-04-09T05:25:27.053Z,99248.91
2023-04-09T05:29:28.155Z,99248.02
2023-04-09T05:33:20.152Z,99254.80
2023-04-09T05:37:21.870Z,99250.43
2023-04-09T05:41:04.397Z,99252.46
2023-04-09T05:44:55.519Z,99248.42
2023-04-09T05:48:43.699Z,99252.33
2023-04-09T05:52:36.132Z,99256.10
2023-04-09T05:56:12.658Z,99254.75
2023-04-09T06:00:20.751Z,99262.65
2023-04-09T06:03:21.654Z,99262.58
2023-04-09T06:07:29.911Z,99263.98
2023-04-09T06:10:10.386Z,99269.36
2023-04-09T06:13:18.863Z,99268.77
2023-04-09T06:17:17.759Z,99272.20
2023-04-09T06:20:11.232Z,99272.05
2023-04-09T06:23:38.254Z,99273.31
2023-04-09T06:26:38.799Z,99273.84
2023-04-09T06:29:15.228Z,99273.14
2023-04-09T06:32:53.805Z,99272.13
2023-04-09T06:36:44.340Z,99269.33
2023-04-09T06:39:34.699Z,99271.70
2023-04-09T06:43:14.938Z,99273.46
2023-04-09T06:46:42.022Z,99279.66
2023-04-09T06:49:41.238Z,99274.88
2023-04-09T06:52:27.511Z,99278.96
2023-04-09T06:56:10.078Z,99276.30
2023-04-09T06:59:06.463Z,99272.59
2023-04-09T07:01:56.609Z,99270.61
2023-04-09T07:04:51.306Z,99274.04
2023-04-09T07:07:44.323Z,99266.25
2023-04-09T07:10:37.867Z,99268.66
2023-04-09T07:13:57.809Z,99268.00
2023-04-09T07:17:15.485Z,99268.83
2023-04-09T07:20:37.693Z,99268.35
2023-04-09T07:23:46.414Z,99270.14
2023-04-09T07:26:45.621Z,99270.53
2023-04-09T07:30:23.867Z,99271.40
2023-04-09T07:33:05.585Z,99267.90
2023-04-09T07:36:21.101Z,99268.44
2023-04-09T07:39:15.845Z,99268.67
2023-04-09T07:41:47.410Z,99268.89
2023-04-09T07:44:47.343Z,99267.67
2023-04-09T07:47:23.279Z,99261.14
2023-04-09T07:51:06.315Z,99261.61
2023-04-09T07:54:38.175Z,99258.03
2023-04-09T07:57:39.678Z,99253.90
2023-04-09T08:01:03.890Z,99255.69
2023-04-09T08:04:07.488Z,99251.73
2023-04-09T08:07:20.627Z,99249.96
2023-04-09T08:10:15.080Z,99253.80
2023-04-09T08:13:46.158Z,99251.06
2023-04-09T08:17:06.562Z,99250.34
2023-04-09T08:20:39.248Z,99241.60
2023-04-09T08:24:29.043Z,99237.71
2023-04-09T08:27:12.220Z,99237.02
2023-04-09T08:29:59.464Z,99233.43
2023-04-09T08:33:11.562Z,99238.27
2023-04-09T08:35:55.703Z,99233.41
2023-04-09T08:39:00.895Z,99237.67
2023-04-09T08:42:11.709Z,99236.56
2023-04-09T08:45:26.969Z,99239.95
2023-04-09T08:48:14.678Z,99237.17
2023-04-09T08:51:43.906Z,99237.57
2023-04-09T08:55:51.976Z,99238.24
2023-04-09T08:59:31.734Z,99231.61
2023-04-09T09:02:39.790Z,99231.30
2023-04-09T09:06:28.887Z,99229.15
2023-04-09T09:09:55.472Z,99221.57
2023-04-09T09:13:05.036Z,99222.30
2023-04-09T09:15:40.554Z,99218.48
2023-04-09T09:19:17.678Z,99221.22
2023-04-09T09:22:13.445Z,99214.66
2023-04-09T09:24:53.709Z,99212.54
2023-04-09T09:28:24.338Z,99209.77
2023-04-09T09:31:38.179Z,99209.36
2023-04-09T09:34:36.916Z,99206.33
2023-04-09T09:37:57.696Z,99205.98
2023-04-09T09:41:01.912Z,99206.23
2023-04-09T09:43:43.109Z,99209.52
2023-04-09T09:46:11.785Z,99203.66
2023-04-09T09:49:17.004Z,99203.27
2023-04-09T09:52:52.708Z,99205.09
2023-04-09T09:56:38.390Z,99202.09
2023-04-09T09:59:27.131Z,99204.45
2023-04-09T10:02:01.572Z,99199.59
2023-04-09T10:04:45.792Z,99197.38
2023-04-09T10:08:30.393Z,99194.45
2023-04-09T10:11:42.792Z,99192.83
2023-04-09T10:14:21.077Z,99194.66
2023-04-09T10:17:16.078Z,99195.36
2023-04-09T10:20:59.987Z,99188.78
2023-04-09T10:24:25.439Z,99195.52
2023-04-09T10:27:16.207Z,99189.23
2023-04-09T10:30:13.312Z,99188.84
2023-04-09T10:33:22.563Z,99188.17
2023-04-09T10:36:27.889Z,99187.13
2023-04-09T10:39:43.320Z,99190.69
2023-04-09T10:42:16.172Z,99187.22
2023-04-09T10:45:22.465Z,99188.48
2023-04-09T10:48:00.421Z,99184.38
2023-04-09T10:50:39.566Z,99182.04
2023-04-09T10:53:32.687Z,99179.80
2023-04-09T10:56:01.485Z,99183.44
2023-04-09T10:58:37.527Z,99183.24
2023-04-09T11:01:27.397Z,99178.89
2023-04-09T11:04:23.618Z,99173.80
2023-04-09T11:06:54.509Z,99174.94
2023-04-09T11:09:55.337Z,99178.58
2023-04-09T11:12:43.096Z,99168.96
2023-04-09T11:15:18.489Z,99167.64
2023-04-09T11:17:54.352Z,99165.58
2023-04-09T11:20:47.536Z,99158.20
2023-04-09T11:23:17.817Z,99162.71
2023-04-09T11:26:10.040Z,99159.06
2023-04-09T11:28:58.384Z,99158.16
2023-04-09T11:31:30.410Z,99154.44
2023-04-09T11:34:20.692Z,99156.90
2023-04-09T11:36:51.495Z,99161.36
2023-04-09T11:39:24.956Z,99155.98
2023-04-09T11:41:58.644Z,99155.52
2023-04-09T11:44:52.394Z,99154.33
2023-04-09T11:47:31.881Z,99149.98
2023-04-09T11:50:06.308Z,99152.73
2023-04-09T11:52:35.837Z,99154.00
2023-04-09T11:55:32.367Z,99154.02
2023-04-09T11:58:18.477Z,99154.20
2023-04-09T12:00:46.154Z,99149.89
2023-04-09T12:03:31.036Z,99152.11
2023-04-09T12:06:02.760Z,99149.89
2023-04-09T12:08:35.530Z,99151.51
2023-04-09T12:11:12.637Z,99154.89
2023-04-09T12:14:11.394Z,99156.30
2023-04-09T12:17:16.128Z,99152.12
2023-04-09T12:20:32.368Z,99147.45
2023-04-09T12:23:14.517Z,99148.52
2023-04-09T12:25:48.272Z,99144.69
2023-04-09T12:28:16.859Z,99140.83
2023-04-09T12:30:54.099Z,99135.91
2023-04-09T12:33:46.576Z,99134.52
2023-04-09T12:36:18.258Z,99131.86
2023-04-09T12:38:52.180Z,99126.72
2023-04-09T12:41:56.340Z,99124.68
2023-04-09T12:44:46.892Z,99120.85
2023-04-09T12:47:23.006Z,99117.65
2023-04-09T12:50:04.905Z,99113.82
2023-04-09T12:52:44.359Z,99112.39
2023-04-09T12:55:30.642Z,99116.95
2023-04-09T12:58:08.726Z,99113.76
2023-04-09T13:01:00.406Z,99110.02
2023-04-09T13:03:32.396Z,99102.49
2023-04-09T13:06:13.059Z,99103.15
2023-04-09T13:08:43.245Z,99106.89
2023-04-09T13:11:18.526Z,99100.58
2023-04-09T13:14:13.482Z,99100.04
2023-04-09T13:16:55.269Z,99100.30
2023-04-09T13:19:26.905Z,99095.17
2023-04-09T13:22:34.357Z,99093.47
2023-04-09T13:25:07.121Z,99096.75
2023-04-09T13:28:01.049Z,99090.42
2023-04-09T13:30:38.694Z,99088.44
2023-04-09T13:33:37.161Z,99084.73
2023-04-09T13:36:38.937Z,99090.36
2023-04-09T13:39:41.096Z,99084.49
2023-04-09T13:42:33.157Z,99080.15
2023-04-09T13:45:32.255Z,99080.73
2023-04-09T13:48:06.554Z,99075.30
2023-04-09T13:50:44.211Z,99074.83
2023-04-09T13:53:12.161Z,99072.11
2023-04-09T13:55:41.233Z,99068.20
2023-04-09T13:58:28.730Z,99067.08
2023-04-09T14:01:39.489Z,99062.03
2023-04-09T14:04:19.436Z,99064.89
2023-04-09T14:07:06.698Z,99057.94
2023-04-09T14:09:55.087Z,99057.27
2023-04-09T14:13:06.612Z,99056.98
2023-04-09T14:15:57.479Z,99054.95
2023-04-09T14:19:10.426Z,99051.65
2023-04-09T14:21:56.825Z,99049.92
2023-04-09T14:24:28.929Z,99048.48
2023-04-09T14:27:38.641Z,99045.61
2023-04-09T14:30:32.354Z,99045.99
2023-04-09T14:33:08.106Z,99042.89
2023-04-09T14:35:41.084Z,99043.29
2023-04-09T14:38:14.908Z,99042.48
2023-04-09T14:40:55.443Z,99041.45
2023-04-09T14:43:45.572Z,99038.09
2023-04-09T14:46:39.712Z,99038.96
2023-04-09T14:49:10.848Z,99037.42
2023-04-09T14:52:37.023Z,99032.73
2023-04-09T14:56:24.601Z,99028.34
2023-04-09T14:59:09.729Z,99028.67
2023-04-09T15:02:08.376Z,99028.53
2023-04-09T15:05:02.141Z,99032.34
2023-04-09T15:07:50.547Z,99029.45
2023-04-09T15:11:20.032Z,99027.06
2023-04-09T15:14:12.285Z,99024.41
2023-04-09T15:16:55.887Z,99024.86
2023-04-09T15:19:25.979Z,99021.63
2023-04-09T15:22:01.723Z,99025.70
2023-04-09T15:24:47.652Z,99020.84
2023-04-09T15:27:36.756Z,99024.68
2023-04-09T15:30:35.310Z,99025.02
2023-04-09T15:33:14.680Z,99018.98
2023-04-09T15:35:43.929Z,99019.25
2023-04-09T15:38:25.230Z,99019.63
2023-04-09T15:41:27.021Z,99020.12
2023-04-09T15:44:05.146Z,99020.06
2023-04-09T15:46:45.870Z,99019.48
2023-04-09T15:49:19.618Z,99022.10
2023-04-09T15:51:54.176Z,99025.47
2023-04-09T15:54:49.673Z,99027.59
2023-04-09T15:57:22.182Z,99030.95
2023-04-09T15:59:49.778Z,99029.77
2023-04-09T16:02:27.179Z,99028.66
2023-04-09T16:05:05.286Z,99030.30
2023-04-09T16:07:52.260Z,99027.16
2023-04-09T16:10:21.993Z,99027.16
2023-04-09T16:12:49.960Z,99032.25
2023-04-09T16:15:29.278Z,99029.02
2023-04-09T16:17:58.089Z,99029.39
2023-04-09T16:20:27.005Z,99031.86
2023-04-09T16:23:10.741Z,99033.20
2023-04-09T16:25:47.724Z,99031.93
2023-04-09T16:28:16.608Z,99033.02
2023-04-09T16:30:50.089Z,99030.67
2023-04-09T16:33:36.967Z,99032.14
2023-04-09T16:36:05.262Z,99035.98
2023-04-09T16:38:40.024Z,99032.77
2023-04-09T16:41:20.037Z,99030.95
2023-04-09T16:43:53.077Z,99034.71
2023-04-09T16:46:46.105Z,99038.26
2023-04-09T16:49:14.145Z,99037.02
2023-04-09T16:51:42.239Z,99035.70
2023-04-09T16:54:13.048Z,99041.63
2023-04-09T16:56:46.086Z,99038.70
2023-04-09T16:59:15.565Z,99043.35
2023-04-09T17:01:49.099Z,99043.52
2023-04-09T17:04:27.020Z,99046.68
2023-04-09T17:07:17.705Z,99046.73
2023-04-09T17:09:59.201Z,99052.11
2023-04-09T17:13:13.772Z,99052.97
2023-04-09T17:15:43.342Z,99059.67
2023-04-09T17:18:30.291Z,99061.73
2023-04-09T17:20:59.434Z,99062.20
2023-04-09T17:23:42.811Z,99064.92
2023-04-09T17:26:10.392Z,99068.71
2023-04-09T17:28:44.471Z,99068.48
2023-04-09T17:31:17.762Z,99070.71
2023-04-09T17:34:41.685Z,99073.98
2023-04-09T17:37:30.972Z,99076.22
2023-04-09T17:40:44.316Z,99078.05
2023-04-09T17:43:54.723Z,99080.95
2023-04-09T17:46:27.131Z,99082.58
2023-04-09T17:49:19.361Z,99088.34
2023-04-09T17:51:49.790Z,99089.77
2023-04-09T17:54:33.625Z,99095.79
2023-04-09T17:57:10.960Z,99094.58
2023-04-09T17:59:56.968Z,99096.89
2023-04-09T18:02:32.990Z,99096.83
2023-04-09T18:05:17.815Z,99095.01
2023-04-09T18:07:56.859Z,99094.31
2023-04-09T18:10:34.271Z,99095.09
2023-04-09T18:13:17.659Z,99095.67
2023-04-09T18:16:18.187Z,99098.30
2023-04-09T18:18:52.364Z,99097.77
2023-04-09T18:21:29.790Z,99098.04
2023-04-09T18:24:03.781Z,99104.81
2023-04-09T18:26:34.935Z,99099.15
2023-04-09T18:29:04.579Z,99097.39
2023-04-09T18:31:36.488Z,99095.17
2023-04-09T18:34:06.788Z,99093.80
2023-04-09T18:36:35.573Z,99089.54
2023-04-09T18:40:20.354Z,99092.61
2023-04-09T18:43:08.803Z,99095.64
2023-04-09T18:45:42.847Z,99096.45
2023-04-09T18:48:13.290Z,99096.91
2023-04-09T18:50:48.469Z,99098.63
2023-04-09T18:53:34.214Z,99098.48
2023-04-09T18:56:10.022Z,99101.33
2023-04-09T18:58:37.262Z,99100.98
2023-04-09T19:01:14.379Z,99097.70
2023-04-09T19:03:44.881Z,99099.57
2023-04-09T19:06:28.009Z,99100.04
2023-04-09T19:08:58.365Z,99096.21
2023-04-09T19:11:33.635Z,99093.12
2023-04-09T19:14:00.719Z,99097.80
2023-04-09T19:16:31.596Z,99099.83
2023-04-09T19:18:58.853Z,99099.13
2023-04-09T19:21:25.963Z,99097.38
2023-04-09T19:23:56.277Z,99095.73
2023-04-09T19:26:26.636Z,99094.91
2023-04-09T19:28:54.289Z,99094.75
2023-04-09T19:31:35.642Z,99094.04
2023-04-09T19:34:08.264Z,99093.64
2023-04-09T19:36:38.316Z,99093.04
2023-04-09T19:39:11.021Z,99092.36
2023-04-09T19:41:41.560Z,99090.77
2023-04-09T19:44:26.044Z,99095.46
2023-04-09T19:46:58.070Z,99091.67
2023-04-09T19:49:34.655Z,99093.19
2023-04-09T19:52:07.156Z,99094.05
2023-04-09T19:54:43.404Z,99091.11
2023-04-09T19:57:12.827Z,99088.19
2023-04-09T20:00:28.667Z,99085.18
2023-04-09T20:03:11.345Z,99083.54
2023-04-09T20:05:44.069Z,99081.01
2023-04-09T20:08:37.088Z,99081.59
2023-04-09T20:11:30.634Z,99080.77
2023-04-09T20:14:18.109Z,99080.55
2023-04-09T20:16:48.903Z,99078.73
2023-04-09T20:19:24.245Z,99079.27
2023-04-09T20:21:57.126Z,99076.63
2023-04-09T20:24:55.533Z,99074.30
2023-04-09T20:27:28.406Z,99070.89
2023-04-09T20:29:59.693Z,99069.52
2023-04-09T20:32:49.006Z,99067.14
2023-04-09T20:35:19.416Z,99064.56
2023-04-09T20:38:41.605Z,99061.66
2023-04-09T20:41:34.138Z,99065.04
2023-04-09T20:44:13.120Z,99059.76
2023-04-09T20:47:15.539Z,99056.86
2023-04-09T20:50:04.464Z,99057.88
2023-04-09T20:53:37.052Z,99054.55
2023-04-09T20:56:25.498Z,99056.76
2023-04-09T21:00:11.664Z,99050.00
2023-04-09T21:04:08.980Z,99049.30
2023-04-09T21:07:19.734Z,99052.55
2023-04-09T21:10:52.749Z,99047.75
2023-04-09T21:14:15.418Z,99049.66
2023-04-09T21:17:12.132Z,99049.64
2023-04-09T21:19:44.757Z,99050.23
2023-04-09T21:23:13.736Z,99055.92
2023-04-09T21:27:01.727Z,99054.58
2023-04-09T21:30:31.331Z,99053.09
2023-04-09T21:33:30.225Z,99046.67
2023-04-09T21:37:18.360Z,99044.34
2023-04-09T21:40:57.263Z,99043.09
2023-04-09T21:44:45.670Z,99046.44
2023-04-09T21:48:30.629Z,99040.48
2023-04-09T21:52:06.513Z,99044.60
2023-04-09T21:55:40.667Z,99043.36
2023-04-09T21:59:16.522Z,99044.03
2023-04-09T22:02:54.013Z,99040.20
2023-04-09T22:06:24.274Z,99038.30
2023-04-09T22:10:28.311Z,99039.14
2023-04-09T22:14:10.057Z,99030.30
2023-04-09T22:18:16.746Z,99027.80
2023-04-09T22:22:24.891Z,99026.73
2023-04-09T22:26:32.982Z,99037.20
2023-04-09T22:30:42.673Z,99039.29
2023-04-09T22:34:50.751Z,99036.58
2023-04-09T22:38:59.896Z,99037.17
2023-04-09T22:42:52.688Z,99033.80
2023-04-09T22:46:50.423Z,99031.55
2023-04-09T22:50:59.313Z,99032.80
2023-04-09T22:55:08.566Z,99028.47
2023-04-09T22:58:56.459Z,99024.11
2023-04-09T23:02:57.625Z,99014.58
2023-04-09T23:07:06.899Z,99014.73
2023-04-09T23:10:47.233Z,99017.27
2023-04-09T23:14:55.028Z,99016.81
2023-04-09T23:18:55.840Z,99012.33
2023-04-09T23:23:04.329Z,99008.23
2023-04-09T23:27:12.524Z,99004.82
2023-04-09T23:31:10.866Z,99005.48
2023-04-09T23:35:18.974Z,99001.96
2023-04-09T23:39:17.581Z,98988.88
2023-04-09T23:43:27.804Z,98986.77
2023-04-09T23:47:36.790Z,98983.11
2023-04-09T23:51:48.053Z,98976.52
2023-04-09T23:55:45.291Z,98971.48
2023-04-09T23:59:33.474Z,98966.07
